SAS479 LKPR-EKCH
Flight info
| Callsign | SAS479 |
|---|---|
| Flight time | 1h 18m |
| Altitude | 38000 |
| Route | VENOX DCT DEKOV Y621 GARKI DCT POGAB DCT KETAP DCT GEVNI T239 PEROM T298 MONAK |
| Aircraft | A20N/M-SDE2E3FGHIRWXY/LB1 |
Departure
| Time | 2026-04-25 11:10 |
|---|---|
| Airport | Václav Havel Airport Prague (LKPR) |
Arrival
| Time | 2026-04-25 12:28 |
|---|---|
| Airport | Copenhagen Kastrup Airport (EKCH) |
| Time | Latitude | Longitude | Altitude | Speed | Heading |
|---|---|---|---|---|---|
| 2026-04-25 10:19 | 50.10708 | 14.26366 | 1179 ft | 0 kts | 214° |
| 2026-04-25 11:01 | 50.10709 | 14.26367 | 1179 ft | 1 kts | 214° |
| 2026-04-25 11:01 | 50.10714 | 14.26373 | 1173 ft | 1 kts | 213° |
| 2026-04-25 11:01 | 50.10720 | 14.26379 | 1173 ft | 1 kts | 214° |
| 2026-04-25 11:02 | 50.10726 | 14.26385 | 1173 ft | 1 kts | 223° |
| 2026-04-25 11:02 | 50.10731 | 14.26394 | 1173 ft | 1 kts | 229° |
| 2026-04-25 11:02 | 50.10736 | 14.26403 | 1175 ft | 1 kts | 243° |
| 2026-04-25 11:02 | 50.10740 | 14.26414 | 1174 ft | 1 kts | 264° |
| 2026-04-25 11:03 | 50.10740 | 14.26426 | 1172 ft | 1 kts | 287° |
| 2026-04-25 11:03 | 50.10739 | 14.26429 | 1178 ft | 0 kts | 295° |
| 2026-04-25 11:03 | 50.10748 | 14.26409 | 1173 ft | 2 kts | 303° |
| 2026-04-25 11:03 | 50.10755 | 14.26393 | 1176 ft | 0 kts | 304° |
| 2026-04-25 11:05 | 50.10768 | 14.26362 | 1172 ft | 6 kts | 303° |
| 2026-04-25 11:05 | 50.10805 | 14.26289 | 1172 ft | 11 kts | 328° |
| 2026-04-25 11:05 | 50.10882 | 14.26335 | 1171 ft | 14 kts | 36° |
| 2026-04-25 11:05 | 50.10973 | 14.26433 | 1169 ft | 17 kts | 34° |
| 2026-04-25 11:06 | 50.11071 | 14.26539 | 1171 ft | 17 kts | 35° |
| 2026-04-25 11:06 | 50.11173 | 14.26647 | 1171 ft | 19 kts | 36° |
| 2026-04-25 11:06 | 50.11250 | 14.26819 | 1172 ft | 20 kts | 66° |
| 2026-04-25 11:06 | 50.11304 | 14.27001 | 1166 ft | 17 kts | 65° |
| 2026-04-25 11:07 | 50.11360 | 14.27190 | 1169 ft | 17 kts | 64° |
| 2026-04-25 11:07 | 50.11387 | 14.27281 | 1166 ft | 1 kts | 65° |
| 2026-04-25 11:07 | 50.11397 | 14.27313 | 1167 ft | 6 kts | 64° |
| 2026-04-25 11:07 | 50.11426 | 14.27389 | 1164 ft | 10 kts | 52° |
| 2026-04-25 11:08 | 50.11466 | 14.27415 | 1167 ft | 6 kts | 357° |
| 2026-04-25 11:08 | 50.11510 | 14.27377 | 1163 ft | 9 kts | 317° |
| 2026-04-25 11:08 | 50.11549 | 14.27290 | 1166 ft | 11 kts | 290° |
| 2026-04-25 11:08 | 50.11542 | 14.27163 | 1165 ft | 14 kts | 247° |
| 2026-04-25 11:09 | 50.11498 | 14.27013 | 1163 ft | 21 kts | 245° |
| 2026-04-25 11:09 | 50.11366 | 14.26573 | 1166 ft | 74 kts | 246° |
| 2026-04-25 11:09 | 50.11071 | 14.25593 | 1170 ft | 122 kts | 245° |
| 2026-04-25 11:09 | 50.10667 | 14.24282 | 1411 ft | 137 kts | 248° |
| 2026-04-25 11:10 | 50.10263 | 14.22943 | 1852 ft | 137 kts | 249° |
| 2026-04-25 11:10 | 50.09994 | 14.22038 | 2203 ft | 136 kts | 248° |
| 2026-04-25 11:10 | 50.09461 | 14.20220 | 2870 ft | 142 kts | 248° |
| 2026-04-25 11:10 | 50.09022 | 14.18768 | 3221 ft | 155 kts | 247° |
| 2026-04-25 11:11 | 50.08531 | 14.17132 | 3440 ft | 177 kts | 248° |
| 2026-04-25 11:11 | 50.07983 | 14.15286 | 3855 ft | 200 kts | 247° |
| 2026-04-25 11:11 | 50.07361 | 14.13220 | 4346 ft | 223 kts | 248° |
| 2026-04-25 11:11 | 50.06667 | 14.10911 | 5021 ft | 246 kts | 248° |
| 2026-04-25 11:12 | 50.05912 | 14.08427 | 5785 ft | 260 kts | 248° |
| 2026-04-25 11:12 | 50.05144 | 14.05824 | 6711 ft | 266 kts | 255° |
| 2026-04-25 11:12 | 50.04918 | 14.03026 | 7721 ft | 261 kts | 278° |
| 2026-04-25 11:12 | 50.05475 | 14.00384 | 8572 ft | 265 kts | 303° |
| 2026-04-25 11:13 | 50.06756 | 13.98335 | 9605 ft | 268 kts | 325° |
| 2026-04-25 11:13 | 50.08317 | 13.96686 | 10438 ft | 277 kts | 325° |
| 2026-04-25 11:13 | 50.09983 | 13.94926 | 10824 ft | 301 kts | 325° |
| 2026-04-25 11:13 | 50.11777 | 13.93017 | 11227 ft | 321 kts | 325° |
| 2026-04-25 11:14 | 50.13638 | 13.91023 | 12054 ft | 326 kts | 325° |
| 2026-04-25 11:14 | 50.15524 | 13.88997 | 12952 ft | 330 kts | 325° |
| 2026-04-25 11:14 | 50.17477 | 13.87067 | 13829 ft | 335 kts | 334° |
| 2026-04-25 11:14 | 50.19696 | 13.86074 | 14588 ft | 341 kts | 353° |
| 2026-04-25 11:15 | 50.22078 | 13.86295 | 15360 ft | 348 kts | 11° |
| 2026-04-25 11:15 | 50.24349 | 13.87740 | 16128 ft | 356 kts | 25° |
| 2026-04-25 11:15 | 50.26558 | 13.89551 | 16894 ft | 360 kts | 25° |
| 2026-04-25 11:15 | 50.28783 | 13.91393 | 17637 ft | 363 kts | 25° |
| 2026-04-25 11:16 | 50.33310 | 13.95125 | 19008 ft | 371 kts | 25° |
| 2026-04-25 11:16 | 50.35608 | 13.97013 | 19650 ft | 375 kts | 25° |
| 2026-04-25 11:16 | 50.37930 | 13.98920 | 20283 ft | 379 kts | 25° |
| 2026-04-25 11:17 | 50.40253 | 14.00828 | 20897 ft | 383 kts | 25° |
| 2026-04-25 11:17 | 50.42625 | 14.02778 | 21530 ft | 387 kts | 25° |
| 2026-04-25 11:17 | 50.45033 | 14.04759 | 22143 ft | 391 kts | 25° |
| 2026-04-25 11:17 | 50.47449 | 14.06749 | 22782 ft | 395 kts | 25° |
| 2026-04-25 11:18 | 50.49895 | 14.08767 | 23393 ft | 399 kts | 25° |
| 2026-04-25 11:18 | 50.52364 | 14.10800 | 23934 ft | 403 kts | 24° |
| 2026-04-25 11:18 | 50.54938 | 14.12555 | 24460 ft | 403 kts | 17° |
| 2026-04-25 11:18 | 50.57632 | 14.13801 | 24958 ft | 404 kts | 10° |
| 2026-04-25 11:19 | 50.60406 | 14.14560 | 25448 ft | 406 kts | 6° |
| 2026-04-25 11:19 | 50.63175 | 14.15211 | 25945 ft | 408 kts | 6° |
| 2026-04-25 11:19 | 50.65993 | 14.15894 | 26395 ft | 411 kts | 6° |
| 2026-04-25 11:19 | 50.68832 | 14.16583 | 26855 ft | 414 kts | 6° |
| 2026-04-25 11:20 | 50.71689 | 14.17278 | 27330 ft | 416 kts | 6° |
| 2026-04-25 11:20 | 50.74559 | 14.17972 | 27764 ft | 419 kts | 6° |
| 2026-04-25 11:20 | 50.77450 | 14.18670 | 28183 ft | 422 kts | 6° |
| 2026-04-25 11:20 | 50.80362 | 14.19372 | 28631 ft | 423 kts | 6° |
| 2026-04-25 11:21 | 50.83291 | 14.20079 | 29041 ft | 426 kts | 5° |
| 2026-04-25 11:21 | 50.86230 | 14.20786 | 29413 ft | 428 kts | 5° |
| 2026-04-25 11:21 | 50.89197 | 14.21171 | 29803 ft | 428 kts | 358° |
| 2026-04-25 11:21 | 50.92173 | 14.21027 | 30195 ft | 427 kts | 352° |
| 2026-04-25 11:22 | 50.95093 | 14.20434 | 30535 ft | 428 kts | 349° |
| 2026-04-25 11:22 | 50.97087 | 14.19992 | 30805 ft | 429 kts | 350° |
| 2026-04-25 11:22 | 51.01003 | 14.19151 | 31364 ft | 429 kts | 350° |
| 2026-04-25 11:22 | 51.03956 | 14.18516 | 31796 ft | 428 kts | 350° |
| 2026-04-25 11:23 | 51.06902 | 14.17877 | 32309 ft | 425 kts | 350° |
| 2026-04-25 11:23 | 51.09833 | 14.17271 | 32842 ft | 422 kts | 351° |
| 2026-04-25 11:23 | 51.12742 | 14.16704 | 33327 ft | 420 kts | 351° |
| 2026-04-25 11:23 | 51.15644 | 14.16143 | 33857 ft | 416 kts | 351° |
| 2026-04-25 11:24 | 51.18509 | 14.15586 | 34357 ft | 412 kts | 351° |
| 2026-04-25 11:24 | 51.21340 | 14.15030 | 34835 ft | 408 kts | 350° |
| 2026-04-25 11:24 | 51.24111 | 14.14481 | 35223 ft | 406 kts | 350° |
| 2026-04-25 11:24 | 51.26937 | 14.13919 | 35628 ft | 403 kts | 350° |
| 2026-04-25 11:25 | 51.29672 | 14.13374 | 36004 ft | 400 kts | 350° |
| 2026-04-25 11:25 | 51.32438 | 14.12821 | 36252 ft | 401 kts | 350° |
| 2026-04-25 11:25 | 51.35202 | 14.12268 | 36539 ft | 400 kts | 350° |
| 2026-04-25 11:25 | 51.37940 | 14.11721 | 37041 ft | 392 kts | 349° |
| 2026-04-25 11:26 | 51.40630 | 14.11131 | 37388 ft | 390 kts | 347° |
| 2026-04-25 11:26 | 51.43317 | 14.10368 | 37436 ft | 394 kts | 346° |
| 2026-04-25 11:26 | 51.48768 | 14.08716 | 37524 ft | 403 kts | 346° |
| 2026-04-25 11:27 | 51.54353 | 14.07083 | 37627 ft | 411 kts | 346° |
| 2026-04-25 11:27 | 51.57175 | 14.06272 | 37795 ft | 412 kts | 347° |
| 2026-04-25 11:27 | 51.59047 | 14.05737 | 37942 ft | 412 kts | 346° |
| 2026-04-25 11:28 | 51.65606 | 14.03858 | 38028 ft | 410 kts | 346° |
| 2026-04-25 11:28 | 51.71240 | 14.02237 | 38025 ft | 410 kts | 346° |
| 2026-04-25 11:29 | 51.76868 | 14.00613 | 38019 ft | 411 kts | 346° |
| 2026-04-25 11:29 | 51.82495 | 13.98986 | 38020 ft | 410 kts | 346° |
| 2026-04-25 11:30 | 51.88084 | 13.97353 | 38013 ft | 410 kts | 346° |
| 2026-04-25 11:30 | 51.93704 | 13.95675 | 38017 ft | 410 kts | 346° |
| 2026-04-25 11:31 | 51.98369 | 13.94282 | 38017 ft | 410 kts | 346° |
| 2026-04-25 11:31 | 52.03990 | 13.92603 | 38009 ft | 410 kts | 346° |
| 2026-04-25 11:32 | 52.09604 | 13.90922 | 38007 ft | 410 kts | 346° |
| 2026-04-25 11:32 | 52.15222 | 13.89236 | 38010 ft | 410 kts | 345° |
| 2026-04-25 11:33 | 52.20803 | 13.87556 | 38016 ft | 410 kts | 345° |
| 2026-04-25 11:33 | 52.26419 | 13.85862 | 38008 ft | 410 kts | 345° |
| 2026-04-25 11:34 | 52.32037 | 13.84162 | 38018 ft | 410 kts | 345° |
| 2026-04-25 11:34 | 52.37656 | 13.82459 | 38012 ft | 410 kts | 345° |
| 2026-04-25 11:35 | 52.43233 | 13.80763 | 38020 ft | 410 kts | 345° |
| 2026-04-25 11:35 | 52.48850 | 13.79051 | 38011 ft | 410 kts | 345° |
| 2026-04-25 11:36 | 52.54465 | 13.77335 | 38010 ft | 410 kts | 345° |
| 2026-04-25 11:36 | 52.60074 | 13.75616 | 37996 ft | 410 kts | 345° |
| 2026-04-25 11:37 | 52.65691 | 13.73891 | 38000 ft | 410 kts | 345° |
| 2026-04-25 11:37 | 52.71303 | 13.72162 | 37985 ft | 410 kts | 345° |
| 2026-04-25 11:38 | 52.76907 | 13.70432 | 37993 ft | 409 kts | 345° |
| 2026-04-25 11:38 | 52.82470 | 13.68709 | 37978 ft | 409 kts | 345° |
| 2026-04-25 11:39 | 52.88065 | 13.66972 | 37979 ft | 409 kts | 345° |
| 2026-04-25 11:39 | 52.93672 | 13.65310 | 37973 ft | 410 kts | 348° |
| 2026-04-25 11:40 | 52.96513 | 13.64752 | 38196 ft | 411 kts | 348° |
| 2026-04-25 11:40 | 52.99378 | 13.64170 | 37951 ft | 416 kts | 347° |
| 2026-04-25 11:40 | 53.05100 | 13.62990 | 37974 ft | 412 kts | 347° |
| 2026-04-25 11:41 | 53.10793 | 13.61816 | 37970 ft | 412 kts | 347° |
| 2026-04-25 11:41 | 53.16486 | 13.60643 | 37961 ft | 412 kts | 347° |
| 2026-04-25 11:42 | 53.22153 | 13.59473 | 37965 ft | 412 kts | 348° |
| 2026-04-25 11:42 | 53.27853 | 13.58294 | 37960 ft | 412 kts | 347° |
| 2026-04-25 11:43 | 53.33538 | 13.57114 | 37956 ft | 411 kts | 347° |
| 2026-04-25 11:43 | 53.39183 | 13.55940 | 37947 ft | 411 kts | 347° |
| 2026-04-25 11:44 | 53.44854 | 13.54756 | 37947 ft | 410 kts | 347° |
| 2026-04-25 11:44 | 53.50530 | 13.53569 | 37941 ft | 410 kts | 347° |
| 2026-04-25 11:45 | 53.56200 | 13.52380 | 37944 ft | 411 kts | 347° |
| 2026-04-25 11:45 | 53.61841 | 13.51193 | 37942 ft | 411 kts | 347° |
| 2026-04-25 11:46 | 53.67518 | 13.49996 | 37943 ft | 411 kts | 347° |
| 2026-04-25 11:46 | 53.73198 | 13.48795 | 37947 ft | 411 kts | 347° |
| 2026-04-25 11:47 | 53.78761 | 13.46895 | 37939 ft | 405 kts | 339° |
| 2026-04-25 11:47 | 53.84158 | 13.44254 | 37943 ft | 405 kts | 339° |
| 2026-04-25 11:48 | 53.89589 | 13.41644 | 37940 ft | 405 kts | 339° |
| 2026-04-25 11:48 | 53.95021 | 13.39003 | 37938 ft | 406 kts | 339° |
| 2026-04-25 11:49 | 54.00445 | 13.36349 | 37936 ft | 406 kts | 339° |
| 2026-04-25 11:49 | 54.05866 | 13.33688 | 37937 ft | 406 kts | 339° |
| 2026-04-25 11:50 | 54.11298 | 13.31014 | 37932 ft | 405 kts | 339° |
| 2026-04-25 11:50 | 54.16717 | 13.28340 | 37929 ft | 403 kts | 339° |
| 2026-04-25 11:51 | 54.19326 | 13.27057 | 37927 ft | 387 kts | 339° |
| 2026-04-25 11:51 | 54.21856 | 13.25814 | 37906 ft | 371 kts | 338° |
| 2026-04-25 11:51 | 54.24310 | 13.24601 | 37574 ft | 363 kts | 338° |
| 2026-04-25 11:51 | 54.26733 | 13.23395 | 37051 ft | 361 kts | 338° |
| 2026-04-25 11:52 | 54.29124 | 13.22202 | 36628 ft | 356 kts | 338° |
| 2026-04-25 11:52 | 54.31486 | 13.21025 | 36226 ft | 350 kts | 338° |
| 2026-04-25 11:52 | 54.33811 | 13.19866 | 35820 ft | 345 kts | 338° |
| 2026-04-25 11:52 | 54.36102 | 13.18723 | 35420 ft | 341 kts | 337° |
| 2026-04-25 11:53 | 54.38363 | 13.17594 | 35034 ft | 336 kts | 337° |
| 2026-04-25 11:53 | 54.40594 | 13.16479 | 34646 ft | 332 kts | 337° |
| 2026-04-25 11:53 | 54.42796 | 13.15377 | 34271 ft | 327 kts | 336° |
| 2026-04-25 11:53 | 54.44881 | 13.14008 | 33890 ft | 316 kts | 327° |
| 2026-04-25 11:54 | 54.46727 | 13.12137 | 33415 ft | 308 kts | 320° |
| 2026-04-25 11:54 | 54.48362 | 13.09807 | 32927 ft | 303 kts | 312° |
| 2026-04-25 11:54 | 54.51342 | 13.04781 | 32033 ft | 296 kts | 313° |
| 2026-04-25 11:55 | 54.52817 | 13.02326 | 31577 ft | 294 kts | 313° |
| 2026-04-25 11:55 | 54.54279 | 12.99890 | 31167 ft | 291 kts | 313° |
| 2026-04-25 11:55 | 54.55726 | 12.97472 | 30746 ft | 288 kts | 312° |
| 2026-04-25 11:55 | 54.57154 | 12.95079 | 30334 ft | 285 kts | 312° |
| 2026-04-25 11:56 | 54.58568 | 12.92703 | 29923 ft | 282 kts | 312° |
| 2026-04-25 11:56 | 54.59954 | 12.90373 | 29459 ft | 279 kts | 312° |
| 2026-04-25 11:56 | 54.61336 | 12.88048 | 28867 ft | 275 kts | 312° |
| 2026-04-25 11:56 | 54.62697 | 12.85756 | 28280 ft | 272 kts | 311° |
| 2026-04-25 11:57 | 54.64044 | 12.83483 | 27715 ft | 269 kts | 311° |
| 2026-04-25 11:57 | 54.65370 | 12.81244 | 27141 ft | 265 kts | 311° |
| 2026-04-25 11:57 | 54.66681 | 12.79030 | 26556 ft | 262 kts | 311° |
| 2026-04-25 11:57 | 54.67963 | 12.76861 | 26028 ft | 260 kts | 311° |
| 2026-04-25 11:58 | 54.69248 | 12.74684 | 25661 ft | 257 kts | 311° |
| 2026-04-25 11:58 | 54.70516 | 12.72536 | 25196 ft | 253 kts | 311° |
| 2026-04-25 11:58 | 54.71770 | 12.70410 | 24688 ft | 251 kts | 310° |
| 2026-04-25 11:58 | 54.73010 | 12.68302 | 24205 ft | 249 kts | 310° |
| 2026-04-25 11:59 | 54.74237 | 12.66214 | 23732 ft | 246 kts | 310° |
| 2026-04-25 11:59 | 54.75453 | 12.64143 | 23235 ft | 244 kts | 310° |
| 2026-04-25 11:59 | 54.76654 | 12.62096 | 22726 ft | 240 kts | 310° |
| 2026-04-25 12:00 | 54.79005 | 12.58083 | 21701 ft | 234 kts | 310° |
| 2026-04-25 12:00 | 54.80157 | 12.56115 | 21157 ft | 231 kts | 310° |
| 2026-04-25 12:00 | 54.82420 | 12.52244 | 20135 ft | 226 kts | 310° |
| 2026-04-25 12:01 | 54.83532 | 12.50340 | 19635 ft | 223 kts | 310° |
| 2026-04-25 12:01 | 54.84634 | 12.48451 | 19196 ft | 222 kts | 310° |
| 2026-04-25 12:01 | 54.85728 | 12.46573 | 18866 ft | 220 kts | 310° |
| 2026-04-25 12:01 | 54.86813 | 12.44710 | 18533 ft | 218 kts | 310° |
| 2026-04-25 12:02 | 54.88948 | 12.41038 | 17816 ft | 216 kts | 310° |
| 2026-04-25 12:02 | 54.90012 | 12.39207 | 17438 ft | 215 kts | 310° |
| 2026-04-25 12:02 | 54.91069 | 12.37387 | 17067 ft | 213 kts | 310° |
| 2026-04-25 12:03 | 54.92121 | 12.35572 | 16698 ft | 212 kts | 310° |
| 2026-04-25 12:03 | 54.93278 | 12.33969 | 16325 ft | 217 kts | 325° |
| 2026-04-25 12:03 | 54.94765 | 12.33217 | 15952 ft | 232 kts | 345° |
| 2026-04-25 12:03 | 54.96422 | 12.33634 | 15561 ft | 254 kts | 9° |
| 2026-04-25 12:04 | 54.97998 | 12.35267 | 15197 ft | 267 kts | 22° |
| 2026-04-25 12:04 | 54.99531 | 12.37066 | 14865 ft | 262 kts | 17° |
| 2026-04-25 12:04 | 55.01139 | 12.38358 | 14547 ft | 248 kts | 5° |
| 2026-04-25 12:04 | 55.02774 | 12.39139 | 14224 ft | 242 kts | 2° |
| 2026-04-25 12:05 | 55.04405 | 12.39880 | 13904 ft | 241 kts | 2° |
| 2026-04-25 12:05 | 55.06025 | 12.40626 | 13568 ft | 240 kts | 2° |
| 2026-04-25 12:05 | 55.07615 | 12.41361 | 13211 ft | 239 kts | 2° |
| 2026-04-25 12:05 | 55.09220 | 12.42104 | 12858 ft | 237 kts | 2° |
| 2026-04-25 12:06 | 55.10809 | 12.42839 | 12526 ft | 236 kts | 2° |
| 2026-04-25 12:06 | 55.12401 | 12.43574 | 12168 ft | 235 kts | 2° |
| 2026-04-25 12:06 | 55.13983 | 12.44306 | 11827 ft | 234 kts | 2° |
| 2026-04-25 12:06 | 55.15555 | 12.45033 | 11494 ft | 233 kts | 2° |
| 2026-04-25 12:07 | 55.17116 | 12.45757 | 11173 ft | 232 kts | 2° |
| 2026-04-25 12:07 | 55.18673 | 12.46478 | 10840 ft | 231 kts | 2° |
| 2026-04-25 12:07 | 55.20205 | 12.47189 | 10518 ft | 230 kts | 2° |
| 2026-04-25 12:07 | 55.21751 | 12.47908 | 10209 ft | 229 kts | 2° |
| 2026-04-25 12:08 | 55.23275 | 12.48860 | 9884 ft | 236 kts | 11° |
| 2026-04-25 12:08 | 55.24776 | 12.50006 | 9576 ft | 234 kts | 11° |
| 2026-04-25 12:08 | 55.26267 | 12.51133 | 9266 ft | 233 kts | 11° |
| 2026-04-25 12:08 | 55.27753 | 12.52248 | 8929 ft | 232 kts | 11° |
| 2026-04-25 12:09 | 55.29227 | 12.53354 | 8620 ft | 230 kts | 11° |
| 2026-04-25 12:09 | 55.30705 | 12.54462 | 8302 ft | 230 kts | 11° |
| 2026-04-25 12:09 | 55.32168 | 12.55561 | 8020 ft | 228 kts | 11° |
| 2026-04-25 12:09 | 55.33611 | 12.56650 | 7868 ft | 224 kts | 11° |
| 2026-04-25 12:10 | 55.35072 | 12.57742 | 7854 ft | 229 kts | 12° |
| 2026-04-25 12:10 | 55.36531 | 12.58841 | 7855 ft | 228 kts | 12° |
| 2026-04-25 12:10 | 55.37924 | 12.60279 | 7852 ft | 242 kts | 31° |
| 2026-04-25 12:10 | 55.38979 | 12.62695 | 7854 ft | 260 kts | 58° |
| 2026-04-25 12:11 | 55.39359 | 12.65872 | 7855 ft | 275 kts | 89° |
| 2026-04-25 12:11 | 55.38880 | 12.69100 | 7851 ft | 279 kts | 120° |
| 2026-04-25 12:11 | 55.37625 | 12.71625 | 7851 ft | 272 kts | 153° |
| 2026-04-25 12:11 | 55.35936 | 12.72811 | 7850 ft | 255 kts | 183° |
| 2026-04-25 12:12 | 55.34240 | 12.72633 | 7848 ft | 236 kts | 208° |
| 2026-04-25 12:12 | 55.33261 | 12.71921 | 7852 ft | 225 kts | 221° |
| 2026-04-25 12:12 | 55.31428 | 12.70132 | 7849 ft | 226 kts | 220° |
| 2026-04-25 12:12 | 55.30044 | 12.68826 | 7851 ft | 226 kts | 220° |
| 2026-04-25 12:13 | 55.28657 | 12.67535 | 7849 ft | 225 kts | 219° |
| 2026-04-25 12:13 | 55.27287 | 12.66256 | 7849 ft | 225 kts | 221° |
| 2026-04-25 12:13 | 55.26121 | 12.64586 | 7853 ft | 210 kts | 240° |
| 2026-04-25 12:13 | 55.25382 | 12.62472 | 7852 ft | 199 kts | 258° |
| 2026-04-25 12:14 | 55.25235 | 12.58123 | 7854 ft | 188 kts | 288° |
| 2026-04-25 12:14 | 55.25765 | 12.56039 | 7855 ft | 188 kts | 302° |
| 2026-04-25 12:14 | 55.26647 | 12.54348 | 7855 ft | 191 kts | 317° |
| 2026-04-25 12:15 | 55.27829 | 12.53205 | 7854 ft | 199 kts | 333° |
| 2026-04-25 12:15 | 55.29225 | 12.52796 | 7853 ft | 210 kts | 351° |
| 2026-04-25 12:15 | 55.30705 | 12.53303 | 7854 ft | 226 kts | 12° |
| 2026-04-25 12:15 | 55.32130 | 12.54606 | 7853 ft | 232 kts | 18° |
| 2026-04-25 12:16 | 55.33546 | 12.55980 | 7853 ft | 232 kts | 18° |
| 2026-04-25 12:16 | 55.34962 | 12.57339 | 7854 ft | 232 kts | 17° |
| 2026-04-25 12:16 | 55.36340 | 12.58879 | 7849 ft | 244 kts | 35° |
| 2026-04-25 12:16 | 55.37258 | 12.61489 | 7794 ft | 262 kts | 66° |
| 2026-04-25 12:17 | 55.37609 | 12.64610 | 7612 ft | 260 kts | 75° |
| 2026-04-25 12:17 | 55.37878 | 12.67675 | 7457 ft | 248 kts | 75° |
| 2026-04-25 12:17 | 55.38130 | 12.70650 | 7226 ft | 244 kts | 75° |
| 2026-04-25 12:17 | 55.38374 | 12.73592 | 6953 ft | 242 kts | 75° |
| 2026-04-25 12:18 | 55.38621 | 12.76512 | 6681 ft | 240 kts | 75° |
| 2026-04-25 12:18 | 55.38873 | 12.79417 | 6427 ft | 239 kts | 75° |
| 2026-04-25 12:18 | 55.39123 | 12.82293 | 6180 ft | 237 kts | 75° |
| 2026-04-25 12:18 | 55.39459 | 12.85085 | 5892 ft | 228 kts | 57° |
| 2026-04-25 12:19 | 55.41026 | 12.88471 | 5416 ft | 212 kts | 35° |
| 2026-04-25 12:19 | 55.42418 | 12.90933 | 4961 ft | 214 kts | 35° |
| 2026-04-25 12:19 | 55.43463 | 12.92762 | 4643 ft | 211 kts | 35° |
| 2026-04-25 12:20 | 55.44460 | 12.94522 | 4456 ft | 195 kts | 35° |
| 2026-04-25 12:20 | 55.45402 | 12.96145 | 4151 ft | 183 kts | 25° |
| 2026-04-25 12:20 | 55.46510 | 12.96738 | 3757 ft | 158 kts | 343° |
| 2026-04-25 12:20 | 55.47555 | 12.96293 | 3329 ft | 157 kts | 335° |
| 2026-04-25 12:21 | 55.48503 | 12.95815 | 3053 ft | 151 kts | 335° |
| 2026-04-25 12:21 | 55.49464 | 12.95354 | 2988 ft | 133 kts | 335° |
| 2026-04-25 12:21 | 55.50315 | 12.94905 | 2997 ft | 126 kts | 327° |
| 2026-04-25 12:21 | 55.51043 | 12.94029 | 3013 ft | 138 kts | 311° |
| 2026-04-25 12:22 | 55.51666 | 12.92727 | 2990 ft | 140 kts | 303° |
| 2026-04-25 12:22 | 55.52212 | 12.91294 | 2996 ft | 141 kts | 301° |
| 2026-04-25 12:22 | 55.52745 | 12.89867 | 2984 ft | 132 kts | 301° |
| 2026-04-25 12:22 | 55.53216 | 12.88610 | 2960 ft | 116 kts | 301° |
| 2026-04-25 12:23 | 55.53669 | 12.87390 | 2860 ft | 119 kts | 301° |
| 2026-04-25 12:23 | 55.54116 | 12.86196 | 2710 ft | 116 kts | 301° |
| 2026-04-25 12:23 | 55.54562 | 12.84999 | 2551 ft | 116 kts | 301° |
| 2026-04-25 12:23 | 55.55010 | 12.83797 | 2400 ft | 122 kts | 301° |
| 2026-04-25 12:24 | 55.55493 | 12.82501 | 2236 ft | 126 kts | 301° |
| 2026-04-25 12:24 | 55.55947 | 12.81290 | 2058 ft | 109 kts | 301° |
| 2026-04-25 12:24 | 55.56339 | 12.80237 | 1911 ft | 101 kts | 300° |
| 2026-04-25 12:24 | 55.56725 | 12.79199 | 1785 ft | 100 kts | 301° |
| 2026-04-25 12:25 | 55.57107 | 12.78175 | 1632 ft | 100 kts | 300° |
| 2026-04-25 12:25 | 55.57485 | 12.77158 | 1504 ft | 101 kts | 299° |
| 2026-04-25 12:25 | 55.57870 | 12.76125 | 1369 ft | 101 kts | 298° |
| 2026-04-25 12:25 | 55.58256 | 12.75089 | 1228 ft | 101 kts | 298° |
| 2026-04-25 12:26 | 55.58645 | 12.74043 | 1080 ft | 102 kts | 300° |
| 2026-04-25 12:26 | 55.59036 | 12.72993 | 929 ft | 103 kts | 300° |
| 2026-04-25 12:26 | 55.59436 | 12.71919 | 772 ft | 104 kts | 300° |
| 2026-04-25 12:26 | 55.59828 | 12.70866 | 623 ft | 101 kts | 301° |
| 2026-04-25 12:27 | 55.60216 | 12.69823 | 475 ft | 101 kts | 301° |
| 2026-04-25 12:27 | 55.60604 | 12.68779 | 330 ft | 102 kts | 302° |
| 2026-04-25 12:27 | 55.60995 | 12.67725 | 204 ft | 103 kts | 301° |
| 2026-04-25 12:27 | 55.61398 | 12.66643 | 53 ft | 108 kts | 301° |
| 2026-04-25 12:28 | 55.61760 | 12.65673 | 24 ft | 69 kts | 303° |
| 2026-04-25 12:28 | 55.61919 | 12.65244 | 24 ft | 27 kts | 304° |
| 2026-04-25 12:28 | 55.62008 | 12.65027 | 27 ft | 14 kts | 315° |
| 2026-04-25 12:28 | 55.62095 | 12.65045 | 25 ft | 14 kts | 33° |
| 2026-04-25 12:29 | 55.62132 | 12.65090 | 24 ft | 1 kts | 33° |
| 2026-04-25 12:29 | 55.62133 | 12.65091 | 24 ft | 0 kts | 33° |
| 2026-04-25 12:29 | 55.62137 | 12.65095 | 24 ft | 3 kts | 33° |
| 2026-04-25 12:29 | 55.62169 | 12.65132 | 26 ft | 8 kts | 33° |
| 2026-04-25 12:30 | 55.62224 | 12.65181 | 26 ft | 8 kts | 1° |
| 2026-04-25 12:30 | 55.62263 | 12.65110 | 26 ft | 8 kts | 304° |
| 2026-04-25 12:30 | 55.62272 | 12.65088 | 27 ft | 0 kts | 304° |
| 2026-04-25 12:30 | 55.62273 | 12.65086 | 23 ft | 1 kts | 304° |
| 2026-04-25 12:31 | 55.62287 | 12.65049 | 26 ft | 5 kts | 304° |
| 2026-04-25 12:31 | 55.62313 | 12.64980 | 28 ft | 8 kts | 304° |
| 2026-04-25 12:31 | 55.62349 | 12.64884 | 26 ft | 10 kts | 303° |
| 2026-04-25 12:31 | 55.62392 | 12.64766 | 26 ft | 12 kts | 303° |
| 2026-04-25 12:32 | 55.62429 | 12.64689 | 23 ft | 13 kts | 328° |
| 2026-04-25 12:32 | 55.62554 | 12.64654 | 23 ft | 12 kts | 358° |
| 2026-04-25 12:32 | 55.62624 | 12.64654 | 23 ft | 7 kts | 352° |
| 2026-04-25 12:32 | 55.62645 | 12.64583 | 23 ft | 4 kts | 283° |
| 2026-04-25 12:33 | 55.62647 | 12.64562 | 26 ft | 1 kts | 281° |
| 2026-04-25 12:33 | 55.62648 | 12.64561 | 25 ft | 0 kts | 281° |